sensor_id;sensor_type;location;lat;lon;timestamp;pressure;altitude;pressure_sealevel;temperature;humidity
42247;BME280;27913;42.722;23.268;2023-01-01T00:01:22;96384.22;;;3.74;96.59
42247;BME280;27913;42.722;23.268;2023-01-01T00:03:53;96440.94;;;4.07;96.19
42247;BME280;27913;42.722;23.268;2023-01-01T00:06:20;96402.94;;;3.80;95.86
42247;BME280;27913;42.722;23.268;2023-01-01T00:08:46;96452.91;;;4.09;95.63
42247;BME280;27913;42.722;23.268;2023-01-01T00:11:12;96449.25;;;4.12;95.55
42247;BME280;27913;42.722;23.268;2023-01-01T00:13:39;96447.59;;;4.11;95.14
42247;BME280;27913;42.722;23.268;2023-01-01T00:16:10;96384.31;;;3.73;95.68
42247;BME280;27913;42.722;23.268;2023-01-01T00:18:36;96358.00;;;3.53;96.18
42247;BME280;27913;42.722;23.268;2023-01-01T00:21:10;96362.28;;;3.66;97.14
42247;BME280;27913;42.722;23.268;2023-01-01T00:23:36;96461.13;;;4.16;98.10
42247;BME280;27913;42.722;23.268;2023-01-01T00:26:09;96446.19;;;4.18;98.01
42247;BME280;27913;42.722;23.268;2023-01-01T00:28:34;96450.72;;;4.16;96.74
42247;BME280;27913;42.722;23.268;2023-01-01T00:31:07;96450.78;;;4.15;96.45
42247;BME280;27913;42.722;23.268;2023-01-01T00:33:33;96452.47;;;4.16;97.26
42247;BME280;27913;42.722;23.268;2023-01-01T00:36:09;96161.09;;;2.31;97.67
42247;BME280;27913;42.722;23.268;2023-01-01T00:38:35;96441.28;;;4.02;98.45
42247;BME280;27913;42.722;23.268;2023-01-01T00:41:01;96362.47;;;3.51;98.20
42247;BME280;27913;42.722;23.268;2023-01-01T00:43:26;96463.00;;;4.14;97.77
42247;BME280;27913;42.722;23.268;2023-01-01T00:45:51;96393.00;;;3.60;97.13
42247;BME280;27913;42.722;23.268;2023-01-01T00:48:17;96375.34;;;3.53;96.98
42247;BME280;27913;42.722;23.268;2023-01-01T00:50:43;96460.31;;;4.03;97.39
42247;BME280;27913;42.722;23.268;2023-01-01T00:53:09;96283.78;;;2.98;97.71
42247;BME280;27913;42.722;23.268;2023-01-01T00:55:34;96460.50;;;4.13;98.12
42247;BME280;27913;42.722;23.268;2023-01-01T00:57:59;96460.63;;;4.11;97.99
42247;BME280;27913;42.722;23.268;2023-01-01T01:00:25;96272.25;;;2.89;98.49
42247;BME280;27913;42.722;23.268;2023-01-01T01:05:26;96343.44;;;3.37;98.22
42247;BME280;27913;42.722;23.268;2023-01-01T01:07:51;96358.06;;;3.52;98.34
42247;BME280;27913;42.722;23.268;2023-01-01T01:10:17;96402.44;;;3.74;97.90
42247;BME280;27913;42.722;23.268;2023-01-01T01:12:45;96461.16;;;4.03;98.65
42247;BME280;27913;42.722;23.268;2023-01-01T01:15:11;96459.41;;;4.04;99.33
42247;BME280;27913;42.722;23.268;2023-01-01T01:17:37;96446.69;;;3.99;98.51
42247;BME280;27913;42.722;23.268;2023-01-01T01:20:04;96450.25;;;3.98;98.06
42247;BME280;27913;42.722;23.268;2023-01-01T01:22:30;96444.66;;;3.91;98.37
42247;BME280;27913;42.722;23.268;2023-01-01T01:24:56;96415.56;;;3.73;98.32
42247;BME280;27913;42.722;23.268;2023-01-01T01:27:21;96286.16;;;2.88;97.40
42247;BME280;27913;42.722;23.268;2023-01-01T01:29:47;96403.09;;;3.65;96.71
42247;BME280;27913;42.722;23.268;2023-01-01T01:32:12;96390.13;;;3.52;96.36
42247;BME280;27913;42.722;23.268;2023-01-01T01:34:38;96443.81;;;3.91;96.90
42247;BME280;27913;42.722;23.268;2023-01-01T01:37:03;96442.78;;;3.93;95.65
42247;BME280;27913;42.722;23.268;2023-01-01T01:39:29;96451.63;;;3.91;95.32
42247;BME280;27913;42.722;23.268;2023-01-01T01:41:54;96450.09;;;3.88;95.92
42247;BME280;27913;42.722;23.268;2023-01-01T01:44:58;96448.19;;;3.90;96.23
42247;BME280;27913;42.722;23.268;2023-01-01T01:52:45;96295.94;;;2.85;95.11
42247;BME280;27913;42.722;23.268;2023-01-01T01:55:12;96454.88;;;3.81;95.13
42247;BME280;27913;42.722;23.268;2023-01-01T01:57:39;96453.56;;;3.76;94.57
42247;BME280;27913;42.722;23.268;2023-01-01T02:00:06;96295.69;;;2.63;94.36
42247;BME280;27913;42.722;23.268;2023-01-01T02:02:36;96451.94;;;3.61;95.23
42247;BME280;27913;42.722;23.268;2023-01-01T02:05:03;96425.03;;;3.23;95.04
42247;BME280;27913;42.722;23.268;2023-01-01T02:07:31;96416.94;;;3.15;95.45
42247;BME280;27913;42.722;23.268;2023-01-01T02:09:58;96449.28;;;3.37;96.45
42247;BME280;27913;42.722;23.268;2023-01-01T02:12:25;96314.69;;;2.51;96.48
42247;BME280;27913;42.722;23.268;2023-01-01T02:14:52;96379.03;;;2.86;96.11
42247;BME280;27913;42.722;23.268;2023-01-01T02:17:31;96455.38;;;3.36;96.40
42247;BME280;27913;42.722;23.268;2023-01-01T02:20:10;96318.03;;;2.53;96.22
42247;BME280;27913;42.722;23.268;2023-01-01T02:29:06;96459.78;;;3.35;93.12
42247;BME280;27913;42.722;23.268;2023-01-01T02:31:49;96400.91;;;2.95;92.82
42247;BME280;27913;42.722;23.268;2023-01-01T02:34:18;96403.13;;;2.88;92.93
42247;BME280;27913;42.722;23.268;2023-01-01T02:36:49;96430.25;;;3.10;94.49
42247;BME280;27913;42.722;23.268;2023-01-01T02:39:18;96450.50;;;3.31;95.48
42247;BME280;27913;42.722;23.268;2023-01-01T02:41:47;96451.34;;;3.32;95.23
42247;BME280;27913;42.722;23.268;2023-01-01T02:44:15;96360.81;;;2.73;94.68
42247;BME280;27913;42.722;23.268;2023-01-01T02:46:41;96412.38;;;3.06;93.67
42247;BME280;27913;42.722;23.268;2023-01-01T02:49:09;96372.16;;;2.72;92.45
42247;BME280;27913;42.722;23.268;2023-01-01T02:52:00;96428.56;;;3.09;92.37
42247;BME280;27913;42.722;23.268;2023-01-01T02:54:52;96417.59;;;3.06;92.69
42247;BME280;27913;42.722;23.268;2023-01-01T02:57:36;96457.59;;;3.29;93.36
42247;BME280;27913;42.722;23.268;2023-01-01T03:00:06;96451.03;;;3.23;92.42
42247;BME280;27913;42.722;23.268;2023-01-01T03:11:42;96442.19;;;3.26;94.18
42247;BME280;27913;42.722;23.268;2023-01-01T03:17:03;96448.03;;;3.17;92.67
42247;BME280;27913;42.722;23.268;2023-01-01T03:19:35;96456.78;;;3.16;92.87
42247;BME280;27913;42.722;23.268;2023-01-01T03:22:08;96400.94;;;2.69;91.70
42247;BME280;27913;42.722;23.268;2023-01-01T03:27:10;96407.03;;;2.55;91.59
42247;BME280;27913;42.722;23.268;2023-01-01T03:29:40;96459.16;;;2.93;92.58
42247;BME280;27913;42.722;23.268;2023-01-01T03:32:11;96454.91;;;2.92;93.31
42247;BME280;27913;42.722;23.268;2023-01-01T03:34:43;96378.88;;;2.36;93.08
42247;BME280;27913;42.722;23.268;2023-01-01T03:37:15;96428.06;;;2.65;94.40
42247;BME280;27913;42.722;23.268;2023-01-01T03:39:50;96456.13;;;2.86;93.82
42247;BME280;27913;42.722;23.268;2023-01-01T03:45:06;96457.69;;;2.88;94.39
42247;BME280;27913;42.722;23.268;2023-01-01T03:47:34;96458.75;;;2.86;95.33
42247;BME280;27913;42.722;23.268;2023-01-01T03:50:01;96455.63;;;2.81;95.34
42247;BME280;27913;42.722;23.268;2023-01-01T03:52:56;96453.41;;;2.74;95.15
42247;BME280;27913;42.722;23.268;2023-01-01T04:00:21;96397.31;;;2.18;96.24
42247;BME280;27913;42.722;23.268;2023-01-01T04:05:16;96292.63;;;1.51;95.61
42247;BME280;27913;42.722;23.268;2023-01-01T04:07:43;96369.75;;;2.02;95.64
42247;BME280;27913;42.722;23.268;2023-01-01T04:10:09;96418.22;;;2.29;97.05
42247;BME280;27913;42.722;23.268;2023-01-01T04:12:44;96436.19;;;2.33;96.97
42247;BME280;27913;42.722;23.268;2023-01-01T04:15:10;96461.03;;;2.37;97.02
42247;BME280;27913;42.722;23.268;2023-01-01T04:17:36;96430.47;;;2.27;96.20
42247;BME280;27913;42.722;23.268;2023-01-01T04:20:01;96467.19;;;2.49;95.85
42247;BME280;27913;42.722;23.268;2023-01-01T04:22:27;96451.41;;;2.39;95.75
42247;BME280;27913;42.722;23.268;2023-01-01T04:24:52;96310.41;;;1.42;96.23
42247;BME280;27913;42.722;23.268;2023-01-01T04:27:18;96435.13;;;2.22;96.65
42247;BME280;27913;42.722;23.268;2023-01-01T04:29:43;96389.63;;;2.03;97.08
42247;BME280;27913;42.722;23.268;2023-01-01T04:32:09;96458.34;;;2.38;97.28
42247;BME280;27913;42.722;23.268;2023-01-01T04:34:34;96457.19;;;2.42;97.07
42247;BME280;27913;42.722;23.268;2023-01-01T04:36:59;96454.06;;;2.37;97.59
42247;BME280;27913;42.722;23.268;2023-01-01T04:39:25;96430.25;;;2.17;97.09
42247;BME280;27913;42.722;23.268;2023-01-01T04:41:50;96436.19;;;2.20;97.78
42247;BME280;27913;42.722;23.268;2023-01-01T04:44:16;96320.41;;;1.49;98.74
42247;BME280;27913;42.722;23.268;2023-01-01T04:46:41;96428.78;;;2.13;98.37
42247;BME280;27913;42.722;23.268;2023-01-01T04:49:07;96454.81;;;2.39;97.98
42247;BME280;27913;42.722;23.268;2023-01-01T04:51:32;96423.72;;;2.25;97.15
42247;BME280;27913;42.722;23.268;2023-01-01T04:53:58;96454.69;;;2.41;96.00
42247;BME280;27913;42.722;23.268;2023-01-01T04:56:24;96419.75;;;2.19;95.47
42247;BME280;27913;42.722;23.268;2023-01-01T04:58:50;96460.94;;;2.38;94.65
42247;BME280;27913;42.722;23.268;2023-01-01T05:01:26;96451.81;;;2.18;93.28
42247;BME280;27913;42.722;23.268;2023-01-01T05:03:53;96386.00;;;1.78;93.03
42247;BME280;27913;42.722;23.268;2023-01-01T05:06:19;96410.41;;;1.89;94.03
42247;BME280;27913;42.722;23.268;2023-01-01T05:08:46;96463.56;;;2.11;94.54
42247;BME280;27913;42.722;23.268;2023-01-01T05:11:14;96479.69;;;2.16;94.21
42247;BME280;27913;42.722;23.268;2023-01-01T05:13:42;96424.44;;;1.86;93.90
42247;BME280;27913;42.722;23.268;2023-01-01T05:16:11;96478.63;;;2.19;94.10
42247;BME280;27913;42.722;23.268;2023-01-01T05:18:37;96442.09;;;1.94;95.05
42247;BME280;27913;42.722;23.268;2023-01-01T05:21:05;96449.78;;;1.96;94.02
42247;BME280;27913;42.722;23.268;2023-01-01T05:23:32;96471.25;;;2.12;93.99
42247;BME280;27913;42.722;23.268;2023-01-01T05:25:58;96410.84;;;1.68;93.88
42247;BME280;27913;42.722;23.268;2023-01-01T05:28:24;96482.97;;;2.18;93.71
42247;BME280;27913;42.722;23.268;2023-01-01T05:30:52;96478.72;;;2.17;93.75
42247;BME280;27913;42.722;23.268;2023-01-01T05:33:19;96484.31;;;2.11;93.33
42247;BME280;27913;42.722;23.268;2023-01-01T05:35:44;96446.00;;;1.87;93.98
42247;BME280;27913;42.722;23.268;2023-01-01T05:38:10;96439.94;;;1.73;93.28
42247;BME280;27913;42.722;23.268;2023-01-01T05:40:39;96496.50;;;1.96;92.70
42247;BME280;27913;42.722;23.268;2023-01-01T05:43:06;96475.13;;;1.77;92.67
42247;BME280;27913;42.722;23.268;2023-01-01T05:45:31;96455.41;;;1.75;92.79
42247;BME280;27913;42.722;23.268;2023-01-01T05:47:57;96484.25;;;1.98;93.54
42247;BME280;27913;42.722;23.268;2023-01-01T05:50:22;96455.88;;;1.67;93.98
42247;BME280;27913;42.722;23.268;2023-01-01T05:52:47;96461.25;;;1.64;93.86
42247;BME280;27913;42.722;23.268;2023-01-01T05:55:13;96496.34;;;1.84;93.76
42247;BME280;27913;42.722;23.268;2023-01-01T05:57:39;96483.78;;;1.63;93.27
42247;BME280;27913;42.722;23.268;2023-01-01T06:00:05;96472.00;;;1.58;94.09
42247;BME280;27913;42.722;23.268;2023-01-01T06:02:30;96498.94;;;1.55;94.94
42247;BME280;27913;42.722;23.268;2023-01-01T06:04:56;96495.00;;;1.49;95.63
42247;BME280;27913;42.722;23.268;2023-01-01T06:07:21;96445.63;;;1.22;97.48
42247;BME280;27913;42.722;23.268;2023-01-01T06:09:46;96501.28;;;1.60;99.29
42247;BME280;27913;42.722;23.268;2023-01-01T06:12:12;96497.84;;;1.59;100.00
42247;BME280;27913;42.722;23.268;2023-01-01T06:14:37;96361.91;;;0.77;100.00
42247;BME280;27913;42.722;23.268;2023-01-01T06:17:03;96494.59;;;1.55;100.00
42247;BME280;27913;42.722;23.268;2023-01-01T06:19:28;96455.81;;;1.39;100.00
42247;BME280;27913;42.722;23.268;2023-01-01T06:21:54;96509.31;;;1.69;100.00
42247;BME280;27913;42.722;23.268;2023-01-01T06:24:19;96415.81;;;1.14;99.39
42247;BME280;27913;42.722;23.268;2023-01-01T06:26:45;96462.84;;;1.37;98.68
42247;BME280;27913;42.722;23.268;2023-01-01T06:29:10;96372.81;;;0.82;97.99
42247;BME280;27913;42.722;23.268;2023-01-01T06:31:36;96371.44;;;0.77;96.87
42247;BME280;27913;42.722;23.268;2023-01-01T06:34:01;96505.06;;;1.68;96.14
42247;BME280;27913;42.722;23.268;2023-01-01T06:36:27;96510.44;;;1.65;94.24
42247;BME280;27913;42.722;23.268;2023-01-01T06:38:55;96356.78;;;0.46;93.27
42247;BME280;27913;42.722;23.268;2023-01-01T06:41:22;96433.22;;;0.83;93.03
42247;BME280;27913;42.722;23.268;2023-01-01T06:43:49;96497.94;;;1.14;93.46
42247;BME280;27913;42.722;23.268;2023-01-01T06:46:32;96474.41;;;0.88;94.34
42247;BME280;27913;42.722;23.268;2023-01-01T06:49:04;96532.94;;;1.21;94.57
42247;BME280;27913;42.722;23.268;2023-01-01T06:51:37;96396.00;;;0.40;95.02
42247;BME280;27913;42.722;23.268;2023-01-01T06:54:04;96462.66;;;0.82;94.65
42247;BME280;27913;42.722;23.268;2023-01-01T06:56:30;96476.28;;;1.00;94.32
42247;BME280;27913;42.722;23.268;2023-01-01T06:58:56;96497.75;;;1.17;94.40
42247;BME280;27913;42.722;23.268;2023-01-01T07:01:26;96439.34;;;0.82;94.55
42247;BME280;27913;42.722;23.268;2023-01-01T07:04:13;96534.34;;;1.41;94.55
42247;BME280;27913;42.722;23.268;2023-01-01T07:06:39;96544.81;;;1.40;94.38
42247;BME280;27913;42.722;23.268;2023-01-01T07:09:06;96502.09;;;1.16;94.60
42247;BME280;27913;42.722;23.268;2023-01-01T07:11:32;96543.41;;;1.49;94.89
42247;BME280;27913;42.722;23.268;2023-01-01T07:13:58;96484.78;;;1.17;95.07
42247;BME280;27913;42.722;23.268;2023-01-01T07:16:23;96526.84;;;1.37;95.65
42247;BME280;27913;42.722;23.268;2023-01-01T07:18:49;96501.72;;;1.37;96.00
42247;BME280;27913;42.722;23.268;2023-01-01T07:21:28;96500.44;;;1.44;95.51
42247;BME280;27913;42.722;23.268;2023-01-01T07:23:54;96418.44;;;1.00;95.35
42247;BME280;27913;42.722;23.268;2023-01-01T07:26:26;96538.13;;;1.79;94.73
42247;BME280;27913;42.722;23.268;2023-01-01T07:28:52;96498.59;;;1.61;94.63
42247;BME280;27913;42.722;23.268;2023-01-01T07:31:18;96537.31;;;1.79;94.87
42247;BME280;27913;42.722;23.268;2023-01-01T07:33:43;96532.94;;;1.79;95.31
42247;BME280;27913;42.722;23.268;2023-01-01T07:36:09;96485.38;;;1.37;95.49
42247;BME280;27913;42.722;23.268;2023-01-01T07:38:34;96542.41;;;1.66;96.16
42247;BME280;27913;42.722;23.268;2023-01-01T07:41:00;96550.66;;;1.58;96.85
42247;BME280;27913;42.722;23.268;2023-01-01T07:43:25;96555.00;;;1.43;97.38
42247;BME280;27913;42.722;23.268;2023-01-01T07:45:51;96554.53;;;1.36;98.55
42247;BME280;27913;42.722;23.268;2023-01-01T07:48:16;96452.81;;;0.72;98.39
42247;BME280;27913;42.722;23.268;2023-01-01T07:50:42;96506.72;;;0.96;98.57
42247;BME280;27913;42.722;23.268;2023-01-01T07:53:08;96413.69;;;0.32;98.74
42247;BME280;27913;42.722;23.268;2023-01-01T07:55:33;96554.97;;;1.14;99.31
42247;BME280;27913;42.722;23.268;2023-01-01T07:57:59;96463.44;;;0.68;99.80
42247;BME280;27913;42.722;23.268;2023-01-01T08:00:25;96513.50;;;1.14;99.56
42247;BME280;27913;42.722;23.268;2023-01-01T08:02:50;96549.59;;;1.46;99.37
42247;BME280;27913;42.722;23.268;2023-01-01T08:05:16;96485.63;;;1.17;99.08
42247;BME280;27913;42.722;23.268;2023-01-01T08:07:49;96500.06;;;1.22;99.09
42247;BME280;27913;42.722;23.268;2023-01-01T08:10:16;96503.88;;;1.30;98.81
42247;BME280;27913;42.722;23.268;2023-01-01T08:12:42;96525.16;;;1.50;98.70
42247;BME280;27913;42.722;23.268;2023-01-01T08:15:08;96562.69;;;1.74;99.08
42247;BME280;27913;42.722;23.268;2023-01-01T08:17:34;96562.59;;;1.75;98.98
42247;BME280;27913;42.722;23.268;2023-01-01T08:20:00;96568.16;;;1.84;99.45
42247;BME280;27913;42.722;23.268;2023-01-01T08:22:25;96527.94;;;1.62;99.51
42247;BME280;27913;42.722;23.268;2023-01-01T08:24:51;96526.28;;;1.61;99.88
42247;BME280;27913;42.722;23.268;2023-01-01T08:27:16;96500.34;;;1.46;99.80
42247;BME280;27913;42.722;23.268;2023-01-01T08:29:43;96471.75;;;1.33;99.75
42247;BME280;27913;42.722;23.268;2023-01-01T08:32:12;96534.81;;;1.77;99.56
42247;BME280;27913;42.722;23.268;2023-01-01T08:34:38;96562.47;;;2.06;99.30
42247;BME280;27913;42.722;23.268;2023-01-01T08:37:04;96479.78;;;1.58;99.25
42247;BME280;27913;42.722;23.268;2023-01-01T08:39:30;96522.53;;;1.94;99.13
42247;BME280;27913;42.722;23.268;2023-01-01T08:41:55;96561.41;;;2.23;99.33
42247;BME280;27913;42.722;23.268;2023-01-01T08:44:21;96483.00;;;1.76;99.50
42247;BME280;27913;42.722;23.268;2023-01-01T08:46:47;96415.63;;;1.32;100.00
42247;BME280;27913;42.722;23.268;2023-01-01T08:49:12;96529.66;;;2.05;100.00
42247;BME280;27913;42.722;23.268;2023-01-01T08:51:38;96502.53;;;1.96;100.00
42247;BME280;27913;42.722;23.268;2023-01-01T08:54:03;96553.16;;;2.31;100.00
42247;BME280;27913;42.722;23.268;2023-01-01T08:56:29;96519.09;;;2.08;100.00
42247;BME280;27913;42.722;23.268;2023-01-01T08:58:54;96555.34;;;2.37;100.00
42247;BME280;27913;42.722;23.268;2023-01-01T09:21:31;96465.56;;;1.92;100.00
42247;BME280;27913;42.722;23.268;2023-01-01T09:23:56;96463.84;;;2.06;100.00
42247;BME280;27913;42.722;23.268;2023-01-01T09:26:22;96507.06;;;2.48;100.00
42247;BME280;27913;42.722;23.268;2023-01-01T09:28:47;96472.97;;;2.39;100.00
42247;BME280;27913;42.722;23.268;2023-01-01T09:31:13;96447.22;;;2.36;100.00
42247;BME280;27913;42.722;23.268;2023-01-01T09:33:38;96473.88;;;2.66;100.00
42247;BME280;27913;42.722;23.268;2023-01-01T09:38:42;96471.09;;;2.95;100.00
42247;BME280;27913;42.722;23.268;2023-01-01T09:46:31;96499.09;;;3.44;100.00
42247;BME280;27913;42.722;23.268;2023-01-01T09:49:04;96471.09;;;3.34;100.00
42247;BME280;27913;42.722;23.268;2023-01-01T09:51:34;96471.72;;;3.51;100.00
42247;BME280;27913;42.722;23.268;2023-01-01T09:56:45;96488.41;;;3.86;100.00
42247;BME280;27913;42.722;23.268;2023-01-01T09:59:12;96446.78;;;3.73;100.00
42247;BME280;27913;42.722;23.268;2023-01-01T10:14:27;96322.56;;;3.39;100.00
42247;BME280;27913;42.722;23.268;2023-01-01T10:16:55;96374.09;;;3.83;100.00
42247;BME280;27913;42.722;23.268;2023-01-01T10:19:41;96327.97;;;3.60;100.00
42247;BME280;27913;42.722;23.268;2023-01-01T10:22:38;96379.50;;;4.04;100.00
42247;BME280;27913;42.722;23.268;2023-01-01T10:25:16;96434.47;;;4.49;100.00
42247;BME280;27913;42.722;23.268;2023-01-01T10:27:49;96456.25;;;4.72;100.00
42247;BME280;27913;42.722;23.268;2023-01-01T10:30:22;96456.25;;;4.83;100.00
42247;BME280;27913;42.722;23.268;2023-01-01T10:32:49;96423.28;;;4.71;100.00
42247;BME280;27913;42.722;23.268;2023-01-01T10:35:18;96393.94;;;4.69;100.00
42247;BME280;27913;42.722;23.268;2023-01-01T10:37:44;96448.03;;;5.13;99.94
42247;BME280;27913;42.722;23.268;2023-01-01T10:40:17;96417.78;;;5.10;98.51
42247;BME280;27913;42.722;23.268;2023-01-01T10:42:49;96436.03;;;5.33;98.21
42247;BME280;27913;42.722;23.268;2023-01-01T10:45:17;96434.97;;;5.47;97.57
42247;BME280;27913;42.722;23.268;2023-01-01T10:48:09;96423.72;;;5.58;95.89
42247;BME280;27913;42.722;23.268;2023-01-01T10:50:44;96426.16;;;5.71;94.56
42247;BME280;27913;42.722;23.268;2023-01-01T10:53:31;96346.16;;;5.37;94.47
42247;BME280;27913;42.722;23.268;2023-01-01T10:58:44;96410.81;;;6.01;93.13
42247;BME280;27913;42.722;23.268;2023-01-01T11:04:15;96334.00;;;5.71;91.36
42247;BME280;27913;42.722;23.268;2023-01-01T11:06:44;96351.59;;;5.90;91.39
42247;BME280;27913;42.722;23.268;2023-01-01T11:09:25;96363.44;;;6.06;91.26
42247;BME280;27913;42.722;23.268;2023-01-01T11:12:00;96314.94;;;5.91;90.41
42247;BME280;27913;42.722;23.268;2023-01-01T11:14:36;96341.69;;;6.16;90.35
42247;BME280;27913;42.722;23.268;2023-01-01T11:17:04;96333.44;;;6.21;89.65
42247;BME280;27913;42.722;23.268;2023-01-01T11:19:35;96401.66;;;6.61;89.11
42247;BME280;27913;42.722;23.268;2023-01-01T11:22:02;96363.38;;;6.50;89.01
42247;BME280;27913;42.722;23.268;2023-01-01T11:24:33;96384.13;;;6.73;88.84
42247;BME280;27913;42.722;23.268;2023-01-01T11:27:21;96380.28;;;6.77;88.29
42247;BME280;27913;42.722;23.268;2023-01-01T11:29:48;96314.91;;;6.46;88.09
42247;BME280;27913;42.722;23.268;2023-01-01T11:32:31;96289.31;;;6.39;87.81
42247;BME280;27913;42.722;23.268;2023-01-01T11:35:02;96285.84;;;6.39;88.22
42247;BME280;27913;42.722;23.268;2023-01-01T11:37:32;96331.84;;;6.73;87.30
42247;BME280;27913;42.722;23.268;2023-01-01T11:40:01;96357.28;;;7.02;87.34
42247;BME280;27913;42.722;23.268;2023-01-01T11:42:33;96354.41;;;7.05;87.30
42247;BME280;27913;42.722;23.268;2023-01-01T11:44:59;96342.88;;;7.08;87.32
42247;BME280;27913;42.722;23.268;2023-01-01T11:47:32;96268.75;;;6.56;87.25
42247;BME280;27913;42.722;23.268;2023-01-01T11:52:46;96344.72;;;7.27;86.92
42247;BME280;27913;42.722;23.268;2023-01-01T11:57:58;96345.59;;;7.37;86.69
42247;BME280;27913;42.722;23.268;2023-01-01T12:00:30;96265.59;;;6.94;86.31
42247;BME280;27913;42.722;23.268;2023-01-01T12:03:02;96349.75;;;7.50;85.64
42247;BME280;27913;42.722;23.268;2023-01-01T12:08:24;96346.03;;;7.63;84.59
42247;BME280;27913;42.722;23.268;2023-01-01T12:11:02;96341.50;;;7.65;84.81
42247;BME280;27913;42.722;23.268;2023-01-01T12:13:36;96335.16;;;7.67;84.18
42247;BME280;27913;42.722;23.268;2023-01-01T12:16:12;96321.38;;;7.65;84.35
42247;BME280;27913;42.722;23.268;2023-01-01T12:19:01;96198.97;;;6.98;83.30
42247;BME280;27913;42.722;23.268;2023-01-01T12:21:32;96264.16;;;7.41;83.40
42247;BME280;27913;42.722;23.268;2023-01-01T12:23:59;96308.69;;;7.70;83.29
42247;BME280;27913;42.722;23.268;2023-01-01T12:26:29;96299.47;;;7.66;82.58
42247;BME280;27913;42.722;23.268;2023-01-01T12:29:15;96223.66;;;7.25;82.97
42247;BME280;27913;42.722;23.268;2023-01-01T12:34:52;96327.34;;;7.97;82.46
42247;BME280;27913;42.722;23.268;2023-01-01T12:37:25;96295.06;;;7.87;81.92
42247;BME280;27913;42.722;23.268;2023-01-01T12:43:00;96305.00;;;8.03;81.98
42247;BME280;27913;42.722;23.268;2023-01-01T12:56:58;96238.69;;;7.92;80.50
42247;BME280;27913;42.722;23.268;2023-01-01T12:59:15;96244.47;;;8.06;80.65
42247;BME280;27913;42.722;23.268;2023-01-01T13:01:42;96185.50;;;7.72;80.07
42247;BME280;27913;42.722;23.268;2023-01-01T13:04:12;96304.53;;;8.57;79.95
42247;BME280;27913;42.722;23.268;2023-01-01T13:06:43;96314.84;;;8.68;79.57
42247;BME280;27913;42.722;23.268;2023-01-01T13:09:35;96230.78;;;8.22;79.07
42247;BME280;27913;42.722;23.268;2023-01-01T13:12:08;96286.44;;;8.64;79.05
42247;BME280;27913;42.722;23.268;2023-01-01T13:14:40;96264.38;;;8.56;78.42
42247;BME280;27913;42.722;23.268;2023-01-01T13:17:22;96284.88;;;8.71;78.39
42247;BME280;27913;42.722;23.268;2023-01-01T13:19:54;96256.34;;;8.58;77.93
42247;BME280;27913;42.722;23.268;2023-01-01T13:33:29;96302.91;;;9.22;77.49
42247;BME280;27913;42.722;23.268;2023-01-01T13:38:51;96189.69;;;8.61;77.16
42247;BME280;27913;42.722;23.268;2023-01-01T13:46:47;96268.00;;;9.12;76.90
42247;BME280;27913;42.722;23.268;2023-01-01T13:57:12;96258.03;;;8.87;77.09
42247;BME280;27913;42.722;23.268;2023-01-01T14:07:54;96188.16;;;8.20;77.71
42247;BME280;27913;42.722;23.268;2023-01-01T14:10:23;96235.38;;;8.48;78.07
42247;BME280;27913;42.722;23.268;2023-01-01T14:12:50;96318.34;;;8.97;78.58
42247;BME280;27913;42.722;23.268;2023-01-01T14:15:36;96291.63;;;8.74;78.91
42247;BME280;27913;42.722;23.268;2023-01-01T14:18:10;96319.72;;;8.91;78.68
42247;BME280;27913;42.722;23.268;2023-01-01T14:20:49;96286.97;;;8.67;79.34
42247;BME280;27913;42.722;23.268;2023-01-01T14:23:25;96316.47;;;8.79;79.82
42247;BME280;27913;42.722;23.268;2023-01-01T14:25:55;96314.28;;;8.75;79.88
42247;BME280;27913;42.722;23.268;2023-01-01T14:28:26;96243.16;;;8.30;79.82
42247;BME280;27913;42.722;23.268;2023-01-01T14:30:54;96272.63;;;8.42;80.16
42247;BME280;27913;42.722;23.268;2023-01-01T14:33:26;96284.75;;;8.53;80.36
42247;BME280;27913;42.722;23.268;2023-01-01T14:35:54;96313.91;;;8.60;80.19
42247;BME280;27913;42.722;23.268;2023-01-01T14:38:26;96284.81;;;8.43;80.51
42247;BME280;27913;42.722;23.268;2023-01-01T14:44:09;96278.22;;;8.29;81.73
42247;BME280;27913;42.722;23.268;2023-01-01T14:46:45;96324.09;;;8.53;81.70
42247;BME280;27913;42.722;23.268;2023-01-01T14:49:18;96235.94;;;7.94;82.02
42247;BME280;27913;42.722;23.268;2023-01-01T14:51:46;96213.47;;;7.71;82.28
42247;BME280;27913;42.722;23.268;2023-01-01T14:54:18;96322.75;;;8.39;82.85
42247;BME280;27913;42.722;23.268;2023-01-01T14:56:48;96279.06;;;8.09;83.00
42247;BME280;27913;42.722;23.268;2023-01-01T14:59:26;96195.16;;;7.52;83.02
42247;BME280;27913;42.722;23.268;2023-01-01T15:02:01;96212.50;;;7.53;83.25
42247;BME280;27913;42.722;23.268;2023-01-01T15:04:27;96299.75;;;8.03;83.53
42247;BME280;27913;42.722;23.268;2023-01-01T15:06:58;96271.09;;;7.81;83.93
42247;BME280;27913;42.722;23.268;2023-01-01T15:09:32;96288.31;;;7.84;84.58
42247;BME280;27913;42.722;23.268;2023-01-01T15:11:58;96330.63;;;8.19;84.53
42247;BME280;27913;42.722;23.268;2023-01-01T15:17:08;96288.84;;;7.88;84.59
42247;BME280;27913;42.722;23.268;2023-01-01T15:19:36;96283.63;;;7.78;84.95
42247;BME280;27913;42.722;23.268;2023-01-01T15:22:25;96263.22;;;7.61;85.08
42247;BME280;27913;42.722;23.268;2023-01-01T15:24:52;96274.94;;;7.67;85.04
42247;BME280;27913;42.722;23.268;2023-01-01T15:29:49;96333.00;;;7.92;85.58
42247;BME280;27913;42.722;23.268;2023-01-01T15:32:23;96327.75;;;7.92;86.02
42247;BME280;27913;42.722;23.268;2023-01-01T15:34:51;96329.53;;;7.92;85.87
42247;BME280;27913;42.722;23.268;2023-01-01T15:37:35;96336.16;;;7.86;85.98
42247;BME280;27913;42.722;23.268;2023-01-01T15:42:45;96307.16;;;7.58;86.16
42247;BME280;27913;42.722;23.268;2023-01-01T15:47:52;96337.94;;;7.76;86.87
42247;BME280;27913;42.722;23.268;2023-01-01T15:52:51;96226.38;;;7.04;86.83
42247;BME280;27913;42.722;23.268;2023-01-01T15:55:19;96345.38;;;7.70;87.04
42247;BME280;27913;42.722;23.268;2023-01-01T15:57:46;96347.44;;;7.67;86.97